Aeroporto :
LOGIN :

Iscrizione | Disclaimer

   EN    FR    IT 

 










Sommario :    VFR   VFR Marginale   IFR   IFR Intensivo   IFR Molto Intensivo
Visibilità : 
Base nubi : 
>= 8 km
>= 3000ft
5 / 8 km
1000 / 3000 ft
1500m / 5 km
500 / 1000 ft
800 / 1500m
200 / 500 ft
< 800m
< 200 ft
Simboli :   Temporali  Nebbia  Neve Forte  Precipitazioni Forti  Vento > 20 kt
SIGMETs :   Varie  Temporali  Ghiacco  Turbolenza  Onda orograficha  Ceneri Vulcaniche






- Altitudine del aeroporto : 290 ft
- Codice IATA : ACI


EGJA - Alderney

ULTIMO METAR :
  • 291350Z 25022KT 9999 VCSH FEW020CB SCT030 06/04 Q0991

METARs OBSOLETI :
  • 291320Z 25024G34KT 9999 SHRA SCT020CB SCT030 07/03 Q0991
  • 291250Z 23026KT 9999 VCSH SCT020CB SCT035 08/02 Q0991
  • 291220Z 24023KT 9999 VCSH FEW020CB SCT035 08/03 Q0991
  • 291150Z 27032G42KT 9999 VCSH SCT020CB SCT035 06/03 Q0991
  • 291120Z 25024KT 9999 VCSH FEW020CB SCT035 08/02 Q0990
  • 291050Z 25025G36KT 9999 FEW020CB SCT035 08/02 Q0990

TAF TAF EGJA
Valido dal 29 a 12 ore il 29 a 21 ore UTC


291100Z 2912/2921 25028G40KT 9999 FEW018CB SCT030
TEMPO 2912/2921 27035G50KT 7000 SHRAGS BKN015CB
PROB40
TEMPO 2912/2921 4000 +SHRAGS BKN010CB



MetMap, La meteo Aeronautica in un colpo d'occhio ! - Copyright ORBIFLY Dicembre 2007 - Disclaimer

ORBIFLY MET'MAP TEAM :

Programmazione e sviluppo : Alexandra Zaïnal
Concezione : Baudouin d'Aumeries
Aiuto per la programmazione : Marc-Olivier Méhu
Supporto tecnico e logistico : Manuel Goepfert
Aiuto per la traduzione : Arnaldo La Scala

Contatto : metmap@orbifly.com




FONTI E CREDITI :

   NOAA